Time;durP1;ratioP1;P1;durP2;ratioP2;P2;SDS_P1;SDS_P2;PMS_P1;PMS_P2;Temp;Humidity;BMP_temperature;BMP_pressure;BME280_temperature;BME280_humidity;BME280_pressure;Samples;Min_cycle;Max_cycle;Signal;HPM_P1;HPM_P2
2021/07/27 00:01:42;;;;;;;7.28;4.80;;;17.40;99.90;;;;;;6228121;28;20133;-79
2021/07/27 00:04:44;;;;;;;9.65;5.53;;;17.30;99.90;;;;;;6227206;28;20129;-79
2021/07/27 00:07:46;;;;;;;8.30;4.93;;;17.30;99.90;;;;;;6226828;28;20046;-78
2021/07/27 00:10:47;;;;;;;12.70;5.82;;;17.10;99.90;;;;;;6227398;28;20103;-79
2021/07/27 00:13:49;;;;;;;5.75;4.43;;;17.20;99.90;;;;;;6228637;28;20085;-79
2021/07/27 00:16:52;;;;;;;9.88;5.28;;;17.10;99.90;;;;;;6227636;28;20422;-80
2021/07/27 00:19:54;;;;;;;5.95;5.35;;;17.10;99.90;;;;;;6227880;28;20200;-79
2021/07/27 00:22:56;;;;;;;5.88;5.15;;;17.10;99.90;;;;;;6227772;28;20081;-79
2021/07/27 00:25:58;;;;;;;5.60;4.90;;;17.00;99.90;;;;;;6226583;28;20515;-78
2021/07/27 00:29:00;;;;;;;8.63;4.72;;;17.00;99.90;;;;;;6225830;28;20045;-78
2021/07/27 00:32:04;;;;;;;6.47;4.90;;;17.00;99.90;;;;;;6227093;28;20125;-78
2021/07/27 00:35:06;;;;;;;9.27;4.70;;;17.00;99.90;;;;;;6227108;28;20046;-78
2021/07/27 00:38:17;;;;;;;11.70;5.20;;;17.00;99.90;;;;;;6226531;28;20050;-79
2021/07/27 00:41:19;;;;;;;7.30;4.82;;;17.00;99.90;;;;;;6226807;28;20058;-78
2021/07/27 00:44:21;;;;;;;6.82;4.97;;;17.00;99.90;;;;;;6223387;28;20070;-77
2021/07/27 00:47:24;;;;;;;10.30;5.88;;;16.90;99.90;;;;;;6223388;28;20046;-78
2021/07/27 00:50:26;;;;;;;9.43;4.95;;;16.90;99.90;;;;;;6224071;28;20069;-78
2021/07/27 00:53:28;;;;;;;6.65;4.93;;;16.90;99.90;;;;;;6223587;28;20042;-77
2021/07/27 00:56:29;;;;;;;6.13;5.53;;;16.90;99.90;;;;;;6246871;28;20430;-78
2021/07/27 00:59:31;;;;;;;12.43;5.18;;;16.90;99.90;;;;;;6248103;28;20120;-78
2021/07/27 01:02:35;;;;;;;6.50;4.68;;;16.90;99.90;;;;;;6248996;28;20085;-79
2021/07/27 01:05:36;;;;;;;5.75;4.82;;;16.90;99.90;;;;;;6250534;28;20099;-78
2021/07/27 01:08:39;;;;;;;13.02;7.70;;;16.80;99.90;;;;;;6249054;28;20064;-79
2021/07/27 01:11:42;;;;;;;12.82;4.97;;;16.80;99.90;;;;;;6250164;28;20045;-78
2021/07/27 01:14:43;;;;;;;7.82;6.43;;;16.80;99.90;;;;;;6249512;28;20041;-79
2021/07/27 01:17:47;;;;;;;11.93;7.82;;;16.80;99.90;;;;;;6249968;28;20527;-78
2021/07/27 01:37:23;;;;;;;11.52;5.20;;;16.80;99.90;;;;;;6250351;28;20049;-77
2021/07/27 01:37:44;;;;;;;9.35;4.72;;;16.40;99.90;;;;;;6253677;28;20053;-78
2021/07/27 01:40:51;;;;;;;9.48;4.65;;;16.40;99.90;;;;;;6253208;28;20055;-78
2021/07/27 01:43:53;;;;;;;9.25;5.30;;;16.40;99.90;;;;;;6254236;28;20045;-78
2021/07/27 01:46:56;;;;;;;7.13;5.65;;;16.40;99.90;;;;;;6252060;28;20052;-78
2021/07/27 01:49:58;;;;;;;8.98;5.95;;;16.40;99.90;;;;;;6253429;28;20056;-78
2021/07/27 01:53:15;;;;;;;16.40;6.18;;;16.40;99.90;;;;;;6252346;28;20131;-78
2021/07/27 01:56:19;;;;;;;10.20;5.63;;;16.40;99.90;;;;;;6251705;28;20061;-78
2021/07/27 01:59:21;;;;;;;6.90;6.13;;;16.40;99.90;;;;;;6251850;28;20093;-78
2021/07/27 02:02:23;;;;;;;6.30;5.38;;;16.40;99.90;;;;;;6254142;28;20048;-78
2021/07/27 02:05:25;;;;;;;5.95;5.10;;;16.50;99.90;;;;;;6254224;28;20611;-78
2021/07/27 02:08:27;;;;;;;11.13;5.93;;;16.40;99.90;;;;;;6251921;28;20418;-78
2021/07/27 02:11:38;;;;;;;7.35;5.65;;;16.40;99.90;;;;;;6251591;28;20064;-78
2021/07/27 02:17:55;;;;;;;6.32;5.72;;;16.30;99.90;;;;;;6250824;28;20046;-78
2021/07/27 02:20:57;;;;;;;6.80;6.13;;;16.30;99.90;;;;;;6250425;28;20045;-78
2021/07/27 02:23:59;;;;;;;9.65;5.68;;;16.30;99.90;;;;;;6250756;28;20049;-78
2021/07/27 02:27:03;;;;;;;7.28;6.53;;;16.20;99.90;;;;;;6250349;28;20095;-78
2021/07/27 02:30:07;;;;;;;7.88;7.07;;;16.30;99.90;;;;;;6250771;28;20490;-78
2021/07/27 02:33:10;;;;;;;12.07;6.85;;;16.30;99.90;;;;;;6250215;28;20045;-78
2021/07/27 02:36:12;;;;;;;8.02;6.07;;;16.20;99.90;;;;;;6256387;28;20100;-78
2021/07/27 02:39:14;;;;;;;7.18;6.45;;;16.20;99.90;;;;;;6257713;28;20115;-77
2021/07/27 02:42:17;;;;;;;10.18;6.10;;;16.20;99.90;;;;;;6257671;28;20144;-78
2021/07/27 02:45:23;;;;;;;11.70;6.25;;;16.10;99.90;;;;;;6258191;28;20095;-79
2021/07/27 02:48:24;;;;;;;8.13;7.32;;;16.10;99.90;;;;;;6257394;28;20125;-78
2021/07/27 02:51:26;;;;;;;8.00;6.88;;;16.10;99.90;;;;;;6257721;28;20080;-76
2021/07/27 02:54:28;;;;;;;10.43;6.32;;;16.10;99.90;;;;;;6257208;28;20053;-79
2021/07/27 02:57:31;;;;;;;7.40;5.47;;;16.00;99.90;;;;;;6257222;28;20045;-78
2021/07/27 03:00:33;;;;;;;7.53;5.85;;;16.00;99.90;;;;;;6256461;28;20095;-78
2021/07/27 03:03:36;;;;;;;5.68;5.00;;;16.00;99.90;;;;;;6256428;28;20139;-78
2021/07/27 03:06:39;;;;;;;10.00;5.50;;;16.00;99.90;;;;;;6255993;28;20195;-77
2021/07/27 03:10:17;;;;;;;11.85;5.32;;;16.00;99.90;;;;;;6257358;28;20132;-79
2021/07/27 03:13:04;;;;;;;6.63;5.20;;;15.90;99.90;;;;;;6256662;28;20049;-80
2021/07/27 03:16:06;;;;;;;15.57;6.57;;;15.80;99.90;;;;;;6256428;28;20073;-77
2021/07/27 03:19:08;;;;;;;8.30;5.57;;;15.80;99.90;;;;;;6256389;28;20122;-78
2021/07/27 03:22:10;;;;;;;10.10;5.07;;;15.80;99.90;;;;;;6256623;28;20103;-77
2021/07/27 03:25:15;;;;;;;9.30;5.20;;;15.80;99.90;;;;;;6247962;28;20045;-78
2021/07/27 03:28:19;;;;;;;11.27;5.13;;;15.80;99.90;;;;;;6257442;28;20515;-79
2021/07/27 03:31:21;;;;;;;5.22;4.32;;;15.70;99.90;;;;;;6254495;28;20119;-77
2021/07/27 03:34:23;;;;;;;6.53;5.07;;;15.70;99.90;;;;;;6251013;28;20050;-77
2021/07/27 03:37:24;;;;;;;5.45;4.90;;;15.70;99.90;;;;;;6249837;28;20098;-77
2021/07/27 03:40:26;;;;;;;8.27;4.93;;;15.70;99.90;;;;;;6249856;28;20134;-77
2021/07/27 03:43:29;;;;;;;5.35;4.18;;;15.70;99.90;;;;;;6249977;28;20110;-76
2021/07/27 03:46:31;;;;;;;5.15;4.65;;;15.70;99.90;;;;;;6248671;28;20052;-77
2021/07/27 03:49:33;;;;;;;9.55;5.38;;;15.70;99.90;;;;;;6248979;28;20084;-77
2021/07/27 03:52:35;;;;;;;6.68;5.22;;;15.70;99.90;;;;;;6247270;28;20410;-77
2021/07/27 03:55:37;;;;;;;6.38;4.63;;;15.70;99.90;;;;;;6250742;28;20092;-76
2021/07/27 03:58:42;;;;;;;7.57;5.90;;;15.70;99.90;;;;;;6250979;28;20175;-76
2021/07/27 04:01:44;;;;;;;14.85;5.63;;;15.70;99.90;;;;;;6249457;28;20048;-77
2021/07/27 04:04:47;;;;;;;7.93;5.22;;;15.70;99.90;;;;;;6248467;28;20575;-78
2021/07/27 04:07:49;;;;;;;7.28;5.47;;;15.70;99.90;;;;;;6248495;28;20100;-77
2021/07/27 04:10:52;;;;;;;6.63;5.80;;;15.70;99.90;;;;;;6248510;28;20045;-77
2021/07/27 04:13:55;;;;;;;8.23;5.82;;;15.70;99.90;;;;;;6249215;28;20049;-77
2021/07/27 04:16:57;;;;;;;8.52;5.28;;;15.70;99.90;;;;;;6247781;28;20041;-77
2021/07/27 04:19:58;;;;;;;6.90;5.40;;;15.70;99.90;;;;;;6247810;28;20107;-77
2021/07/27 04:23:01;;;;;;;6.03;5.32;;;15.70;99.90;;;;;;6247778;28;20053;-77
2021/07/27 04:26:03;;;;;;;9.65;5.32;;;15.90;99.90;;;;;;6247532;28;20053;-77
2021/07/27 04:29:06;;;;;;;9.60;5.20;;;15.90;99.90;;;;;;6247763;28;20119;-76
2021/07/27 04:32:08;;;;;;;7.15;5.47;;;16.00;99.90;;;;;;6247554;28;20073;-77
2021/07/27 04:35:10;;;;;;;6.05;5.43;;;16.10;99.90;;;;;;6248400;28;20096;-77
2021/07/27 04:38:12;;;;;;;15.40;5.32;;;16.10;99.90;;;;;;6249279;28;20124;-77
2021/07/27 04:41:14;;;;;;;8.05;5.72;;;16.20;99.90;;;;;;6248236;28;20076;-77
2021/07/27 04:44:17;;;;;;;7.60;5.50;;;16.20;99.90;;;;;;6247340;28;20132;-77
2021/07/27 04:47:19;;;;;;;6.85;5.32;;;16.20;99.90;;;;;;6247335;28;20537;-76
2021/07/27 04:50:21;;;;;;;15.57;6.65;;;16.30;99.90;;;;;;6247600;28;20045;-77
2021/07/27 04:53:23;;;;;;;8.45;4.72;;;16.40;99.90;;;;;;6247281;28;20570;-78
2021/07/27 04:56:26;;;;;;;6.82;5.05;;;16.50;99.90;;;;;;6247402;28;20045;-77
2021/07/27 04:59:31;;;;;;;5.40;4.90;;;16.60;99.90;;;;;;6247730;28;20038;-77
2021/07/27 05:02:32;;;;;;;7.70;6.20;;;16.60;99.90;;;;;;6247413;28;20063;-75
2021/07/27 05:05:34;;;;;;;9.82;6.05;;;16.70;99.90;;;;;;6247359;28;20533;-77
2021/07/27 05:08:36;;;;;;;14.80;5.90;;;16.90;99.90;;;;;;6246917;28;20102;-77
2021/07/27 05:11:38;;;;;;;8.18;5.47;;;17.10;99.90;;;;;;6247463;28;20107;-77
2021/07/27 05:14:41;;;;;;;12.32;7.03;;;17.40;99.90;;;;;;6247085;28;20045;-77
2021/07/27 05:17:43;;;;;;;6.20;5.60;;;17.60;99.90;;;;;;6247770;28;20191;-77
2021/07/27 05:20:45;;;;;;;10.15;5.55;;;18.00;99.90;;;;;;6247261;28;20068;-77
2021/07/27 05:23:47;;;;;;;9.30;4.82;;;18.90;99.90;;;;;;6247252;28;20081;-77
2021/07/27 05:26:49;;;;;;;5.82;4.95;;;19.70;99.90;;;;;;6246571;28;20184;-77
2021/07/27 05:29:54;;;;;;;10.00;5.90;;;19.90;99.90;;;;;;6247115;28;20059;-77
2021/07/27 05:33:00;;;;;;;6.03;5.43;;;19.80;99.90;;;;;;6246486;28;20046;-77
2021/07/27 05:36:02;;;;;;;7.30;4.80;;;19.90;99.90;;;;;;6246223;28;20045;-77
2021/07/27 05:39:04;;;;;;;7.03;5.25;;;20.10;99.90;;;;;;6247298;28;20068;-78
2021/07/27 05:42:06;;;;;;;7.40;4.60;;;20.30;99.60;;;;;;6248822;28;20684;-77
2021/07/27 05:45:11;;;;;;;9.65;4.45;;;20.40;98.50;;;;;;6247889;28;20518;-78
2021/07/27 05:48:12;;;;;;;6.70;4.50;;;20.60;97.80;;;;;;6252249;28;20068;-78
2021/07/27 05:51:15;;;;;;;8.38;4.65;;;20.70;97.10;;;;;;6254180;28;20124;-76
2021/07/27 05:54:18;;;;;;;6.43;4.13;;;20.80;96.90;;;;;;6255346;28;20462;-77
2021/07/27 05:57:20;;;;;;;5.72;4.22;;;20.80;96.60;;;;;;6251688;28;20521;-78
2021/07/27 06:00:24;;;;;;;7.35;4.55;;;20.80;96.20;;;;;;6251965;28;20096;-77
2021/07/27 06:03:25;;;;;;;8.32;5.05;;;20.90;95.80;;;;;;6250309;28;20144;-77
2021/07/27 06:06:31;;;;;;;6.47;5.40;;;20.90;95.00;;;;;;6245482;28;20494;-78
2021/07/27 06:09:33;;;;;;;7.00;4.85;;;20.80;94.60;;;;;;6251237;28;20050;-78
2021/07/27 06:12:35;;;;;;;7.32;4.88;;;20.90;94.90;;;;;;6253057;28;20051;-79
2021/07/27 06:15:38;;;;;;;4.85;4.35;;;20.90;94.70;;;;;;6254276;28;20515;-77
2021/07/27 06:18:40;;;;;;;8.18;4.78;;;21.00;94.30;;;;;;6254202;28;20127;-78
2021/07/27 06:21:42;;;;;;;6.20;4.72;;;21.30;93.50;;;;;;6253859;28;20088;-78
2021/07/27 06:24:43;;;;;;;16.65;4.70;;;21.40;92.80;;;;;;6254445;28;20123;-78
2021/07/27 06:27:45;;;;;;;9.50;4.70;;;21.70;92.70;;;;;;6253218;28;20128;-76
2021/07/27 06:30:48;;;;;;;8.82;5.55;;;21.90;91.60;;;;;;6253233;28;20172;-79
2021/07/27 06:33:50;;;;;;;4.53;3.83;;;21.70;91.00;;;;;;6254356;28;20096;-78
2021/07/27 06:36:52;;;;;;;9.05;5.60;;;21.60;91.60;;;;;;6253606;28;20067;-78
2021/07/27 06:39:54;;;;;;;7.30;5.00;;;21.80;92.00;;;;;;6254455;28;20123;-79
2021/07/27 06:42:56;;;;;;;5.93;4.32;;;22.20;91.60;;;;;;6253699;28;20629;-78
2021/07/27 06:45:59;;;;;;;7.97;5.32;;;22.70;90.20;;;;;;6252678;28;20053;-77
2021/07/27 06:49:01;;;;;;;7.25;5.15;;;23.10;86.40;;;;;;6249579;28;20621;-77
2021/07/27 06:52:03;;;;;;;7.05;4.55;;;23.10;85.10;;;;;;6249661;28;20050;-77
2021/07/27 06:55:06;;;;;;;7.70;4.40;;;23.20;84.30;;;;;;6250004;28;20107;-76
2021/07/27 06:58:08;;;;;;;5.35;4.13;;;23.30;83.00;;;;;;6249687;28;20118;-76
2021/07/27 07:01:13;;;;;;;6.63;4.13;;;23.30;83.70;;;;;;6249898;28;20148;-76
2021/07/27 07:04:15;;;;;;;6.63;4.82;;;23.60;81.80;;;;;;6249425;28;20048;-77
2021/07/27 07:07:18;;;;;;;5.75;5.15;;;23.80;80.10;;;;;;6249172;28;20550;-76
2021/07/27 07:10:20;;;;;;;4.13;3.65;;;23.70;78.70;;;;;;6249341;28;20056;-76
2021/07/27 07:13:22;;;;;;;7.97;3.72;;;23.80;79.40;;;;;;6249322;28;20454;-76
2021/07/27 07:16:25;;;;;;;8.25;4.85;;;23.90;78.70;;;;;;6248842;28;20123;-76
2021/07/27 07:19:28;;;;;;;5.72;3.60;;;24.10;78.40;;;;;;6249245;28;20111;-76
2021/07/27 07:22:30;;;;;;;5.32;4.00;;;24.10;76.50;;;;;;6248842;28;20634;-76
2021/07/27 07:25:32;;;;;;;5.25;4.07;;;24.00;75.30;;;;;;6248799;28;20068;-76
2021/07/27 07:28:34;;;;;;;6.30;5.13;;;23.90;75.40;;;;;;6247611;28;20525;-76
2021/07/27 07:31:37;;;;;;;6.07;3.72;;;23.80;76.10;;;;;;6248639;28;20049;-76
2021/07/27 07:34:39;;;;;;;5.43;3.90;;;23.80;75.90;;;;;;6248663;28;20049;-76
2021/07/27 07:37:41;;;;;;;6.43;4.45;;;23.90;76.60;;;;;;6249186;28;20081;-76
2021/07/27 07:40:43;;;;;;;5.53;4.20;;;24.10;75.60;;;;;;6248844;28;20542;-76
2021/07/27 07:43:48;;;;;;;6.82;5.10;;;24.20;75.10;;;;;;6248874;28;20056;-77
2021/07/27 07:46:51;;;;;;;5.03;4.53;;;24.40;74.80;;;;;;6249517;28;20041;-78
2021/07/27 07:49:53;;;;;;;5.90;4.30;;;24.50;73.00;;;;;;6248920;28;20053;-76
2021/07/27 07:52:59;;;;;;;4.65;3.72;;;24.60;72.70;;;;;;6247939;28;20502;-77
2021/07/27 07:56:00;;;;;;;7.07;4.13;;;24.70;73.10;;;;;;6247828;28;20418;-77
2021/07/27 07:59:02;;;;;;;6.95;3.78;;;24.80;71.60;;;;;;6248103;28;20042;-76
2021/07/27 08:02:06;;;;;;;8.75;3.67;;;25.10;71.00;;;;;;6248805;28;20049;-77
2021/07/27 08:05:08;;;;;;;7.72;5.28;;;25.40;70.20;;;;;;6247772;28;20052;-76
2021/07/27 08:08:10;;;;;;;6.10;4.38;;;25.80;69.40;;;;;;6248308;28;20041;-76
2021/07/27 08:11:12;;;;;;;5.43;3.58;;;25.90;68.90;;;;;;6247909;28;20124;-77
2021/07/27 08:14:14;;;;;;;5.95;3.75;;;25.90;67.50;;;;;;6248275;28;20122;-76
2021/07/27 08:17:17;;;;;;;5.32;3.60;;;26.20;66.60;;;;;;6247836;28;20400;-76
2021/07/27 08:20:20;;;;;;;6.35;3.88;;;26.50;66.20;;;;;;6248034;28;20049;-76
2021/07/27 08:23:21;;;;;;;5.05;4.53;;;26.70;65.10;;;;;;6247599;28;20044;-77
2021/07/27 08:26:23;;;;;;;8.23;3.17;;;26.80;65.60;;;;;;6247836;28;20081;-78
2021/07/27 08:29:25;;;;;;;3.63;2.83;;;27.00;63.70;;;;;;6248119;28;20522;-76
2021/07/27 08:32:28;;;;;;;7.00;4.25;;;27.00;64.10;;;;;;6247454;28;20092;-74
2021/07/27 08:35:30;;;;;;;16.67;4.07;;;27.20;63.30;;;;;;6247361;28;20083;-77
2021/07/27 08:38:34;;;;;;;6.45;3.30;;;27.20;62.10;;;;;;6246545;28;20049;-75
2021/07/27 08:41:39;;;;;;;5.75;3.60;;;27.40;61.80;;;;;;6247738;28;20053;-75
2021/07/27 08:44:44;;;;;;;6.18;3.67;;;27.80;61.50;;;;;;6246792;28;20415;-75
2021/07/27 08:47:48;;;;;;;4.55;3.70;;;27.90;60.70;;;;;;6247031;28;20172;-75
2021/07/27 08:50:51;;;;;;;5.55;4.00;;;27.80;59.50;;;;;;6247128;28;20394;-75
2021/07/27 08:53:53;;;;;;;6.97;3.30;;;27.70;60.80;;;;;;6247774;28;20045;-73
2021/07/27 08:56:55;;;;;;;4.45;4.00;;;27.50;60.20;;;;;;6246449;28;20573;-75
2021/07/27 08:59:57;;;;;;;5.90;4.15;;;27.50;60.50;;;;;;6247016;28;20131;-76
2021/07/27 09:03:09;;;;;;;5.60;3.97;;;27.60;60.10;;;;;;6246738;28;20415;-76
2021/07/27 09:06:11;;;;;;;5.95;4.28;;;27.50;59.80;;;;;;6247148;28;20053;-75
2021/07/27 09:09:13;;;;;;;7.82;3.95;;;27.30;60.10;;;;;;6247062;28;20102;-75
2021/07/27 09:12:20;;;;;;;5.40;4.25;;;27.20;59.10;;;;;;6247881;28;20128;-78
2021/07/27 09:15:23;;;;;;;7.55;4.38;;;27.10;60.40;;;;;;6226089;28;20115;-77
2021/07/27 09:18:28;;;;;;;4.47;3.60;;;27.00;60.30;;;;;;6224414;28;20085;-77
2021/07/27 09:21:30;;;;;;;6.88;3.83;;;26.80;59.80;;;;;;6224875;28;20172;-78
2021/07/27 09:24:32;;;;;;;4.20;3.75;;;26.90;59.90;;;;;;6226112;28;20393;-77
2021/07/27 09:27:35;;;;;;;6.18;4.05;;;27.20;60.00;;;;;;6222539;28;20184;-77
2021/07/27 09:30:38;;;;;;;5.68;3.63;;;27.40;59.50;;;;;;6223036;28;20073;-77
2021/07/27 09:33:41;;;;;;;4.38;3.25;;;27.40;58.60;;;;;;6224508;28;20144;-77
2021/07/27 09:36:44;;;;;;;9.77;4.43;;;27.40;58.30;;;;;;6222814;28;20531;-77
2021/07/27 09:39:46;;;;;;;3.45;3.15;;;27.40;58.10;;;;;;6222747;28;20046;-79
2021/07/27 09:42:48;;;;;;;10.77;4.00;;;27.40;59.30;;;;;;6222739;28;20157;-77
2021/07/27 09:45:51;;;;;;;3.97;3.45;;;27.60;58.80;;;;;;6223247;28;20046;-78
2021/07/27 09:48:54;;;;;;;6.55;3.72;;;27.70;58.60;;;;;;6226782;28;20104;-77
2021/07/27 09:51:57;;;;;;;4.22;3.53;;;27.60;58.30;;;;;;6227546;28;20530;-77
2021/07/27 09:54:59;;;;;;;7.57;3.53;;;27.50;58.10;;;;;;6227344;28;20518;-77
2021/07/27 09:58:01;;;;;;;4.95;3.50;;;27.40;57.60;;;;;;6230504;28;20096;-78
2021/07/27 10:01:07;;;;;;;4.90;4.32;;;27.30;58.10;;;;;;6227714;28;20072;-78
2021/07/27 10:04:11;;;;;;;4.20;3.55;;;27.20;59.10;;;;;;6231124;28;20169;-76
2021/07/27 10:07:13;;;;;;;5.18;2.80;;;27.20;58.70;;;;;;6227848;28;20123;-77
2021/07/27 10:10:15;;;;;;;9.07;3.30;;;27.10;58.10;;;;;;6227013;28;20050;-76
2021/07/27 10:13:18;;;;;;;4.35;3.65;;;27.10;58.20;;;;;;6234286;28;20652;-77
2021/07/27 10:16:24;;;;;;;3.70;3.17;;;27.30;57.90;;;;;;6250339;28;20041;-78
2021/07/27 10:19:39;;;;;;;5.97;3.73;;;27.40;57.70;;;;;;6251504;28;20053;-77
2021/07/27 10:22:41;;;;;;;5.55;4.10;;;27.60;58.00;;;;;;6251310;28;20053;-77
2021/07/27 10:25:57;;;;;;;3.42;2.95;;;28.00;58.80;;;;;;6250888;28;20487;-77
2021/07/27 10:29:01;;;;;;;5.07;4.20;;;28.40;58.20;;;;;;6250435;28;20053;-76
2021/07/27 10:32:13;;;;;;;4.75;4.15;;;28.80;56.80;;;;;;6250226;28;20060;-75
2021/07/27 10:35:33;;;;;;;4.22;3.83;;;29.10;57.00;;;;;;6245862;28;20133;-77
2021/07/27 10:38:37;;;;;;;6.15;3.83;;;29.20;55.50;;;;;;6246642;28;20085;-74
2021/07/27 10:41:40;;;;;;;7.05;3.80;;;29.10;55.40;;;;;;6249507;28;20055;-74
2021/07/27 10:44:42;;;;;;;6.95;4.45;;;29.20;55.30;;;;;;6248822;28;20514;-75
2021/07/27 10:47:49;;;;;;;5.43;3.78;;;29.30;54.40;;;;;;6249023;28;20050;-73
2021/07/27 10:50:56;;;;;;;4.28;3.38;;;29.20;54.40;;;;;;6249254;28;20045;-75
2021/07/27 10:53:59;;;;;;;3.97;3.50;;;29.00;54.90;;;;;;6249849;28;20053;-76
2021/07/27 10:57:02;;;;;;;3.95;3.60;;;28.90;55.70;;;;;;6250461;28;20638;-76
2021/07/27 11:00:05;;;;;;;5.78;3.92;;;28.70;56.30;;;;;;6249611;28;20055;-76
2021/07/27 11:03:07;;;;;;;4.70;4.00;;;28.60;56.20;;;;;;6248942;28;20118;-76
2021/07/27 11:06:10;;;;;;;6.63;4.40;;;28.40;56.90;;;;;;6249005;28;20111;-76
2021/07/27 11:09:12;;;;;;;8.45;3.75;;;28.30;56.20;;;;;;6248839;28;20183;-76
2021/07/27 11:12:14;;;;;;;5.15;3.88;;;28.30;57.40;;;;;;6248475;28;20569;-76
2021/07/27 11:15:19;;;;;;;6.32;4.63;;;28.30;56.40;;;;;;6248623;28;20037;-76
2021/07/27 11:18:20;;;;;;;7.93;3.75;;;28.40;55.70;;;;;;6247924;28;20203;-76
2021/07/27 11:21:24;;;;;;;5.50;4.82;;;28.40;55.50;;;;;;6248720;28;20411;-76
2021/07/27 11:24:27;;;;;;;4.70;3.47;;;28.60;55.90;;;;;;6248100;28;20130;-76
2021/07/27 11:27:29;;;;;;;4.25;3.85;;;28.60;55.50;;;;;;6247998;28;20119;-77
2021/07/27 11:30:36;;;;;;;3.60;3.30;;;28.70;56.00;;;;;;6248545;28;20099;-76
2021/07/27 11:33:48;;;;;;;4.32;3.92;;;28.70;55.50;;;;;;6248230;28;20056;-75
2021/07/27 11:36:53;;;;;;;4.18;3.78;;;28.80;55.50;;;;;;6246703;28;20055;-76
2021/07/27 11:39:56;;;;;;;4.03;3.63;;;28.90;55.00;;;;;;6247403;28;20050;-75
2021/07/27 11:43:05;;;;;;;4.70;3.90;;;28.90;55.00;;;;;;6248041;28;20049;-75
2021/07/27 11:46:08;;;;;;;4.45;4.05;;;29.00;54.40;;;;;;6247677;28;20041;-75
2021/07/27 11:49:10;;;;;;;4.85;3.30;;;29.10;53.80;;;;;;6247666;28;20183;-75
2021/07/27 11:52:25;;;;;;;5.95;3.85;;;29.20;53.60;;;;;;6247515;28;20099;-76
2021/07/27 11:55:31;;;;;;;6.20;4.45;;;29.40;53.60;;;;;;6247449;28;20499;-75
2021/07/27 11:58:33;;;;;;;3.63;3.33;;;29.50;53.10;;;;;;6247471;28;20507;-75
2021/07/27 12:01:38;;;;;;;4.55;4.03;;;29.50;53.20;;;;;;6247886;28;20144;-75
2021/07/27 12:04:40;;;;;;;6.93;4.85;;;29.40;53.60;;;;;;6247461;28;20053;-75
2021/07/27 12:07:44;;;;;;;9.43;4.03;;;29.40;53.30;;;;;;6246900;28;20154;-76
2021/07/27 12:10:46;;;;;;;4.97;4.00;;;29.50;52.90;;;;;;6247212;28;20128;-75
2021/07/27 12:13:48;;;;;;;4.13;3.65;;;29.60;52.40;;;;;;6246588;28;20083;-76
2021/07/27 12:16:50;;;;;;;4.57;3.97;;;29.60;53.00;;;;;;6247180;28;20115;-76
2021/07/27 12:19:52;;;;;;;3.97;3.67;;;29.60;53.00;;;;;;6247318;28;20053;-76
2021/07/27 12:22:55;;;;;;;5.22;3.97;;;29.70;52.50;;;;;;6246714;28;20051;-75
2021/07/27 12:25:57;;;;;;;8.20;3.85;;;29.60;52.20;;;;;;6246770;28;20046;-75
2021/07/27 12:28:58;;;;;;;4.28;3.88;;;29.50;52.00;;;;;;6246609;28;20103;-75
2021/07/27 12:32:00;;;;;;;4.72;4.32;;;29.40;52.60;;;;;;6246195;28;20138;-75
2021/07/27 12:35:02;;;;;;;7.13;4.20;;;29.40;54.20;;;;;;6246256;28;20083;-75
2021/07/27 12:38:05;;;;;;;5.32;4.20;;;29.30;53.70;;;;;;6245287;28;20057;-75
2021/07/27 12:41:07;;;;;;;4.05;3.65;;;29.40;53.70;;;;;;6245799;28;20196;-75
2021/07/27 12:44:10;;;;;;;8.10;3.78;;;29.50;52.70;;;;;;6246420;28;20156;-75
2021/07/27 12:47:12;;;;;;;4.30;3.88;;;29.40;53.30;;;;;;6246619;28;20037;-75
2021/07/27 12:50:14;;;;;;;12.70;4.70;;;29.30;53.30;;;;;;6246977;28;20140;-76
2021/07/27 12:53:18;;;;;;;3.88;3.35;;;29.30;52.50;;;;;;6248700;28;20057;-75
2021/07/27 12:56:19;;;;;;;3.97;3.58;;;29.30;52.70;;;;;;6245688;28;20184;-75
2021/07/27 12:59:23;;;;;;;7.80;4.75;;;29.30;52.70;;;;;;6246434;28;20079;-75
2021/07/27 13:02:24;;;;;;;4.72;3.50;;;29.30;51.90;;;;;;6246032;28;20563;-75
2021/07/27 13:05:26;;;;;;;6.05;4.80;;;29.20;52.60;;;;;;6246265;28;20622;-75
2021/07/27 13:08:29;;;;;;;8.02;3.88;;;29.20;52.80;;;;;;6246139;28;20117;-75
2021/07/27 13:11:31;;;;;;;5.30;4.32;;;29.20;52.50;;;;;;6246230;28;20132;-75
2021/07/27 13:14:33;;;;;;;8.77;4.13;;;29.10;52.40;;;;;;6245734;28;20049;-75
2021/07/27 13:17:35;;;;;;;5.03;3.42;;;29.10;52.10;;;;;;6245852;28;20582;-75
2021/07/27 13:20:36;;;;;;;5.82;3.83;;;29.10;51.80;;;;;;6246132;28;20216;-75
2021/07/27 13:23:41;;;;;;;4.45;3.95;;;29.00;52.20;;;;;;6246563;28;20130;-75
2021/07/27 13:26:43;;;;;;;5.72;4.30;;;29.10;51.70;;;;;;6251177;28;20045;-75
2021/07/27 13:29:45;;;;;;;4.28;3.88;;;29.00;51.00;;;;;;6251712;28;20081;-75
2021/07/27 13:32:46;;;;;;;4.32;3.92;;;29.10;51.60;;;;;;6251310;28;20053;-75
2021/07/27 13:35:48;;;;;;;5.63;4.07;;;29.30;50.60;;;;;;6250816;28;20098;-75
2021/07/27 13:38:51;;;;;;;3.78;3.45;;;29.40;50.10;;;;;;6250170;28;20581;-75
2021/07/27 13:41:53;;;;;;;5.50;4.28;;;29.30;49.80;;;;;;6251129;28;20098;-74
2021/07/27 13:44:55;;;;;;;5.80;4.25;;;29.40;50.10;;;;;;6251114;28;20041;-75
2021/07/27 13:47:58;;;;;;;6.20;4.32;;;29.40;50.00;;;;;;6251157;28;20239;-75
2021/07/27 13:50:59;;;;;;;5.53;3.83;;;29.40;49.10;;;;;;6251467;28;20049;-75
2021/07/27 13:54:03;;;;;;;6.00;3.50;;;29.40;49.90;;;;;;6252041;28;20477;-76
2021/07/27 13:57:05;;;;;;;5.20;3.92;;;29.30;48.80;;;;;;6279269;28;20029;-74
2021/07/27 14:00:11;;;;;;;4.13;3.63;;;29.30;52.40;;;;;;6283360;28;20088;-74
2021/07/27 14:03:13;;;;;;;4.50;4.10;;;29.20;52.40;;;;;;6283023;28;20085;-75
2021/07/27 14:06:15;;;;;;;5.45;4.60;;;29.00;50.70;;;;;;6282686;28;20071;-74
2021/07/27 14:09:18;;;;;;;6.43;3.90;;;29.10;51.40;;;;;;6283399;28;20033;-75
2021/07/27 14:12:20;;;;;;;6.38;4.95;;;29.20;49.30;;;;;;6282615;28;20025;-75
2021/07/27 14:15:23;;;;;;;4.57;3.83;;;29.30;49.80;;;;;;6282538;28;20052;-75
2021/07/27 14:18:24;;;;;;;11.35;4.13;;;29.30;50.20;;;;;;6282617;28;20029;-74
2021/07/27 14:21:28;;;;;;;4.45;3.50;;;29.30;48.80;;;;;;6282018;28;20026;-75
2021/07/27 14:24:32;;;;;;;5.30;4.05;;;29.30;48.50;;;;;;6280451;28;20046;-75
2021/07/27 14:27:34;;;;;;;4.53;3.85;;;29.40;51.00;;;;;;6280226;28;20059;-75
2021/07/27 14:30:36;;;;;;;4.18;3.78;;;29.30;50.00;;;;;;6251595;28;20051;-75
2021/07/27 14:33:38;;;;;;;4.63;4.20;;;29.20;50.50;;;;;;6251995;28;20084;-76
2021/07/27 14:36:39;;;;;;;4.30;3.90;;;29.20;50.30;;;;;;6249177;28;20049;-77
2021/07/27 14:39:43;;;;;;;3.67;3.38;;;29.40;49.50;;;;;;6247226;28;20056;-77
2021/07/27 14:42:44;;;;;;;3.92;3.25;;;29.40;48.80;;;;;;6247943;28;20053;-77
2021/07/27 14:45:46;;;;;;;5.05;3.83;;;29.30;48.60;;;;;;6249874;28;20061;-77
2021/07/27 14:48:48;;;;;;;4.13;3.75;;;29.30;49.30;;;;;;6251278;28;20522;-76
2021/07/27 14:51:50;;;;;;;3.72;3.33;;;29.20;49.60;;;;;;6256061;28;20159;-76
2021/07/27 14:54:53;;;;;;;4.32;3.78;;;29.00;49.70;;;;;;6256247;28;20045;-77
2021/07/27 14:57:55;;;;;;;4.38;3.83;;;28.80;52.10;;;;;;6257476;28;20119;-77
2021/07/27 15:00:57;;;;;;;4.78;4.32;;;28.60;52.40;;;;;;6259855;28;20053;-77
2021/07/27 15:03:59;;;;;;;6.25;4.20;;;28.60;51.70;;;;;;6255828;28;20081;-77
2021/07/27 15:07:01;;;;;;;5.63;5.05;;;28.50;50.30;;;;;;6255556;28;20180;-77
2021/07/27 15:10:09;;;;;;;4.85;4.13;;;28.50;50.60;;;;;;6257099;28;20060;-79
2021/07/27 15:13:11;;;;;;;4.75;3.85;;;28.50;50.20;;;;;;6250312;28;20049;-77
2021/07/27 15:16:13;;;;;;;5.63;4.82;;;28.50;50.80;;;;;;6249364;28;20060;-77
2021/07/27 15:19:15;;;;;;;5.70;4.90;;;28.50;50.10;;;;;;6248793;28;20641;-77
2021/07/27 15:22:17;;;;;;;8.10;4.40;;;28.40;50.80;;;;;;6248567;28;20073;-77
2021/07/27 15:25:20;;;;;;;9.90;4.82;;;28.30;51.00;;;;;;6249721;28;20045;-77
2021/07/27 15:28:22;;;;;;;4.63;3.95;;;28.20;51.30;;;;;;6248301;28;20115;-77
2021/07/27 15:31:23;;;;;;;6.68;4.25;;;28.10;50.90;;;;;;6249123;28;20064;-77
2021/07/27 15:34:25;;;;;;;4.65;4.07;;;28.00;52.30;;;;;;6248815;28;20211;-78
2021/07/27 15:37:27;;;;;;;4.68;3.85;;;27.90;53.50;;;;;;6248477;28;20109;-77
2021/07/27 15:40:30;;;;;;;4.53;4.07;;;27.80;53.10;;;;;;6249870;28;20128;-77
2021/07/27 15:43:32;;;;;;;4.82;4.07;;;27.70;52.90;;;;;;6233419;28;20056;-77
2021/07/27 15:46:34;;;;;;;5.40;4.20;;;27.60;51.90;;;;;;6224655;28;20050;-77
2021/07/27 15:49:36;;;;;;;7.32;4.38;;;27.50;54.70;;;;;;6224076;28;20050;-77
2021/07/27 15:52:37;;;;;;;3.97;3.67;;;27.30;56.20;;;;;;6224981;28;20053;-77
2021/07/27 15:55:43;;;;;;;6.55;4.47;;;27.20;58.30;;;;;;6223361;28;20046;-77
2021/07/27 15:58:45;;;;;;;5.38;4.30;;;27.10;58.30;;;;;;6224752;28;20052;-76
2021/07/27 16:01:47;;;;;;;4.13;3.72;;;27.00;59.20;;;;;;6228214;28;20129;-77
2021/07/27 16:04:49;;;;;;;5.40;4.68;;;27.00;59.80;;;;;;6223692;28;20581;-77
2021/07/27 16:07:50;;;;;;;6.40;5.80;;;27.00;61.10;;;;;;6222574;28;20507;-77